Park View, Iowa
Current Conditions -  °F | °C
As of 4:52 PM on Monday 20 Oct 2014 (Local Time) from KDVN Reporting Station
Few Clouds Few Clouds  
Wind Chill: 67°   Ceiling: Unl
Heat Index: 67°   Visibility: 10mi
Dew Point: 40°   Wind: 15mph
Humidity: 37%   Direction: 300°WNW
Pressure: 29.94"   Gusts: NA
Location:  41.666°N, 90.5607°W
Report Text: KDVN 202152Z AUTO 30013KT 10SM FEW060 19/04 A2994 RMK AO2 SLP139 T01940044 TSNO
Loading
Personal Weather Stations






























Interactive Weather Map
Tropical Storm Tracking
New forecast layout! Learn more

10-Day Weather Forecast

Advertisements
Track Severe Weather on mobile